Flight Track Log - Related Links

Times and Time Zones

All times are in EDT time to prevent confusion due to time zone crossing. See the UCA4838 flight status page for this flight to view local times or setup timezone preferences in your user account.


Time Position Orientation Groundspeed Altitude Reporting Facility
EDT Latitude Longitude Course Direction KTS MPH feet Rate Location/Type
Mon 06:32:15 AM 43.0994 -77.6944 124° Southeast 143 165 1,100  Level Cleveland Center
Mon 06:33:22 AM 43.0731 -77.6444 126° Southeast 215 247 2,000 1,078 Climbing Cleveland Center
Mon 06:34:23 AM 43.0836 -77.5672 79° East 202 232 3,400 1,376 Climbing Cleveland Center
Mon 06:35:11 AM 43.0906 -77.5100 81° East 200 230 4,500 1,222 Climbing Cleveland Center
Mon 06:36:11 AM 43.0967 -77.4328 84° East 211 243 5,600 1,150 Climbing Cleveland Center
Mon 06:37:00 AM 42.8705 -77.1075 124° Southeast  Level FlightAware Approximate
Mon 06:37:11 AM 43.0822 -77.3569 105° East 217 250 6,800  Level Cleveland Center
Mon 06:38:11 AM 43.0472 -77.3047 133° Southeast 193 222 8,000 1,000 Climbing Cleveland Center
Mon 06:39:11 AM 43.0106 -77.2556 136° Southeast 193 222 8,800 850 Climbing Cleveland Center
Mon 06:40:11 AM 42.9714 -77.1978 133° Southeast 198 228 9,700 900 Climbing Cleveland Center
Mon 06:41:11 AM 42.9258 -77.1381 136° Southeast 215 247 10,600 994 Climbing Cleveland Center
Mon 06:42:54 AM 42.8517 -77.0317 134° Southeast 226 260 12,400 883 Climbing Boston Center
Mon 06:43:54 AM 42.8125 -76.9694 131° Southeast 221 254 13,000 300 Climbing Boston Center
Mon 06:44:54 AM 42.7761 -76.8875 121° Southeast 226 260 13,000 -50 Level Boston Center
Mon 06:45:54 AM 42.7378 -76.7997 121° Southeast 251 289 12,900 -50 Descending Boston Center
Mon 06:46:54 AM 42.6975 -76.7094 121° Southeast 272 313 12,900  Level Boston Center
Mon 06:47:54 AM 42.6592 -76.6192 120° Southeast 278 320 12,900  Level Boston Center
Mon 06:48:54 AM 42.6167 -76.5289 123° Southeast 278 320 12,900  Level Boston Center
Mon 06:50:06 AM 42.5742 -76.4331 121° Southeast 278 320 12,900  Level Boston Center
Mon 06:51:06 AM 42.5278 -76.3283 121° Southeast 283 326 12,900  Level Boston Center
Mon 06:52:06 AM 42.4889 -76.2414 121° Southeast 283 326 12,900  Level Boston Center
Mon 06:53:06 AM 42.4542 -76.1606 120° Southeast 283 326 12,900  Level Boston Center
Mon 06:54:06 AM 42.4111 -76.0708 123° Southeast 281 323 12,900  Level Boston Center
Mon 06:55:07 AM 42.3742 -75.9900 122° Southeast 280 322 12,900  Level Boston Center
Mon 06:56:06 AM 42.3331 -75.8978 121° Southeast 271 312 12,900  Level Boston Center
Mon 06:57:06 AM 42.2939 -75.8142 122° Southeast 271 312 12,900  Level Boston Center
Mon 06:58:06 AM 42.2547 -75.7278 121° Southeast 271 312 12,900  Level Boston Center
Mon 06:59:06 AM 42.2136 -75.6386 122° Southeast 271 312 12,900  Level Boston Center
Mon 07:00:06 AM 42.1742 -75.5528 122° Southeast 271 312 12,900  Level Boston Center
Mon 07:01:06 AM 42.1328 -75.4639 122° Southeast 271 312 12,900  Level Boston Center
Mon 07:02:06 AM 42.0933 -75.3781 122° Southeast 271 312 12,900  Level Boston Center
Mon 07:03:06 AM 42.0539 -75.2894 121° Southeast 271 312 12,900 50 Level Boston Center
Mon 07:04:06 AM 42.0189 -75.1956 117° Southeast 277 319 13,000 50 Climbing Boston Center
Mon 07:05:06 AM 41.9794 -75.0961 118° Southeast 277 319 13,000  Level Boston Center
Mon 07:06:06 AM 41.9442 -75.0025 117° Southeast 277 319 13,000 -350 Level Boston Center
Mon 07:07:06 AM 41.8958 -74.9197 128° Southeast 277 319 12,300 -1,000 Descending Boston Center
Mon 07:08:06 AM 41.8353 -74.8364 134° Southeast 301 346 11,000 -1,250 Descending Boston Center
Mon 07:09:06 AM 41.7783 -74.7592 135° Southeast 306 352 9,800 -1,300 Descending Boston Center
Mon 07:10:06 AM 41.7217 -74.6819 135° Southeast 300 345 8,400 -1,150 Descending Boston Center
Mon 07:11:06 AM 41.6669 -74.6078 135° Southeast 295 339 7,500 -700 Descending Boston Center
Mon 07:12:06 AM 41.6031 -74.5583 150° Southeast 276 318 7,000 -250 Descending Boston Center
Mon 07:13:06 AM 41.5319 -74.5700 187° South 256 295 7,000 -308 Level Boston Center
Mon 07:15:21 AM 41.3667 -74.6000 188° South 270 311 6,000 -369 Descending New York TRACON
Mon 07:16:21 AM 41.3000 -74.5833 169° South 274 315 5,800 -450 Descending New York TRACON
Mon 07:17:21 AM 41.2500 -74.5167 135° Southeast 278 320 5,100 -421 Descending New York TRACON
Mon 07:18:15 AM 41.2000 -74.4500 135° Southeast 279 321 5,000 -53 Descending New York TRACON
Mon 07:19:15 AM 41.1333 -74.3833 143° Southeast 271 312 5,000  Level New York TRACON
Mon 07:20:15 AM 41.0833 -74.3333 143° Southeast 267 307 5,000  Level New York TRACON
Mon 07:21:09 AM 41.0333 -74.2667 135° Southeast 266 306 5,000 -368 Level New York TRACON
Mon 07:22:09 AM 40.9667 -74.2000 143° Southeast 272 313 4,300 -500 Descending New York TRACON
Mon 07:23:09 AM 40.9167 -74.1500 143° Southeast 244 281 4,000 -400 Descending New York TRACON
Mon 07:24:09 AM 40.8833 -74.1000 131° Southeast 208 239 3,500 -684 Descending New York TRACON
Mon 07:25:03 AM 40.8333 -74.0833 166° South 205 236 2,700 -947 Descending New York TRACON
Mon 07:26:03 AM 40.7833 -74.1167 207° Southwest 199 229 1,700 -950 Descending New York TRACON
Mon 07:27:03 AM 40.7333 -74.1333 194° South 168 193 800 -900 Descending New York TRACON
Mon 07:29:00 AM 40.6833 -74.1667 143° Southeast  Level FlightAware Approximate

Login

Don't have an account? Register now (free) for customized features, flight alerts, and more!